sensor_id;sensor_type;location;lat;lon;timestamp;temperature;humidity
8172;DHT22;4127;47.908;10.850;2023-12-07T00:00:11;1.30;99.90
8172;DHT22;4127;47.908;10.850;2023-12-07T00:02:41;1.30;99.90
8172;DHT22;4127;47.908;10.850;2023-12-07T00:05:08;1.30;99.90
8172;DHT22;4127;47.908;10.850;2023-12-07T00:07:35;1.20;99.90
8172;DHT22;4127;47.908;10.850;2023-12-07T00:10:02;1.20;99.90
8172;DHT22;4127;47.908;10.850;2023-12-07T00:12:29;1.30;99.90
8172;DHT22;4127;47.908;10.850;2023-12-07T00:14:56;1.30;99.90
8172;DHT22;4127;47.908;10.850;2023-12-07T00:17:32;1.30;99.90
8172;DHT22;4127;47.908;10.850;2023-12-07T00:20:02;1.20;99.90
8172;DHT22;4127;47.908;10.850;2023-12-07T00:22:30;1.20;99.90
8172;DHT22;4127;47.908;10.850;2023-12-07T00:24:57;1.20;99.90
8172;DHT22;4127;47.908;10.850;2023-12-07T00:27:34;1.10;99.90
8172;DHT22;4127;47.908;10.850;2023-12-07T00:30:01;1.10;99.90
8172;DHT22;4127;47.908;10.850;2023-12-07T00:32:28;1.00;99.90
8172;DHT22;4127;47.908;10.850;2023-12-07T00:34:55;1.10;99.90
8172;DHT22;4127;47.908;10.850;2023-12-07T00:37:22;0.90;99.90
8172;DHT22;4127;47.908;10.850;2023-12-07T00:39:52;1.00;99.90
8172;DHT22;4127;47.908;10.850;2023-12-07T00:43:07;0.90;99.90
8172;DHT22;4127;47.908;10.850;2023-12-07T00:45:39;0.90;99.90
8172;DHT22;4127;47.908;10.850;2023-12-07T00:48:16;0.80;99.90
8172;DHT22;4127;47.908;10.850;2023-12-07T00:50:43;0.80;99.90
8172;DHT22;4127;47.908;10.850;2023-12-07T00:53:10;0.70;99.90
8172;DHT22;4127;47.908;10.850;2023-12-07T00:55:40;0.70;99.90
8172;DHT22;4127;47.908;10.850;2023-12-07T00:58:25;0.70;99.90
8172;DHT22;4127;47.908;10.850;2023-12-07T01:00:58;0.60;99.90
8172;DHT22;4127;47.908;10.850;2023-12-07T01:03:33;0.50;99.90
8172;DHT22;4127;47.908;10.850;2023-12-07T01:06:01;0.50;99.90
8172;DHT22;4127;47.908;10.850;2023-12-07T01:08:29;0.50;99.90
8172;DHT22;4127;47.908;10.850;2023-12-07T01:10:56;0.50;99.90
8172;DHT22;4127;47.908;10.850;2023-12-07T01:13:30;0.40;99.90
8172;DHT22;4127;47.908;10.850;2023-12-07T01:16:11;0.40;99.90
8172;DHT22;4127;47.908;10.850;2023-12-07T01:18:41;0.30;99.90
8172;DHT22;4127;47.908;10.850;2023-12-07T01:21:17;0.40;99.90
8172;DHT22;4127;47.908;10.850;2023-12-07T01:23:57;0.30;99.90
8172;DHT22;4127;47.908;10.850;2023-12-07T01:26:43;0.30;99.90
8172;DHT22;4127;47.908;10.850;2023-12-07T01:29:18;0.30;99.90
8172;DHT22;4127;47.908;10.850;2023-12-07T01:32:05;0.20;99.90
8172;DHT22;4127;47.908;10.850;2023-12-07T01:35:00;0.20;99.90
8172;DHT22;4127;47.908;10.850;2023-12-07T01:37:27;0.20;99.90
8172;DHT22;4127;47.908;10.850;2023-12-07T01:39:56;0.10;99.90
8172;DHT22;4127;47.908;10.850;2023-12-07T01:42:27;-0.10;99.90
8172;DHT22;4127;47.908;10.850;2023-12-07T01:44:59;-0.10;99.90
8172;DHT22;4127;47.908;10.850;2023-12-07T01:47:27;-0.20;99.90
8172;DHT22;4127;47.908;10.850;2023-12-07T01:49:57;-0.20;99.90
8172;DHT22;4127;47.908;10.850;2023-12-07T01:52:29;-0.20;99.90
8172;DHT22;4127;47.908;10.850;2023-12-07T01:55:02;-0.20;99.90
8172;DHT22;4127;47.908;10.850;2023-12-07T01:57:37;-0.30;99.90
8172;DHT22;4127;47.908;10.850;2023-12-07T02:00:05;-0.30;99.90
8172;DHT22;4127;47.908;10.850;2023-12-07T02:05:55;-0.50;99.90
8172;DHT22;4127;47.908;10.850;2023-12-07T02:08:47;-0.50;99.90
8172;DHT22;4127;47.908;10.850;2023-12-07T02:11:18;-0.50;99.90
8172;DHT22;4127;47.908;10.850;2023-12-07T02:13:52;-0.50;99.90
8172;DHT22;4127;47.908;10.850;2023-12-07T02:16:54;-0.50;99.90
8172;DHT22;4127;47.908;10.850;2023-12-07T02:19:51;-0.40;99.90
8172;DHT22;4127;47.908;10.850;2023-12-07T02:22:37;-0.40;99.90
8172;DHT22;4127;47.908;10.850;2023-12-07T02:25:06;-0.40;99.90
8172;DHT22;4127;47.908;10.850;2023-12-07T02:27:44;-0.40;99.90
8172;DHT22;4127;47.908;10.850;2023-12-07T02:30:47;-0.40;99.90
8172;DHT22;4127;47.908;10.850;2023-12-07T02:33:23;-0.40;99.90
8172;DHT22;4127;47.908;10.850;2023-12-07T02:35:51;-0.40;99.90
8172;DHT22;4127;47.908;10.850;2023-12-07T02:38:26;-0.40;99.90
8172;DHT22;4127;47.908;10.850;2023-12-07T02:40:55;-0.40;99.90
8172;DHT22;4127;47.908;10.850;2023-12-07T02:43:31;-0.40;99.90
8172;DHT22;4127;47.908;10.850;2023-12-07T02:46:01;-0.40;99.90
8172;DHT22;4127;47.908;10.850;2023-12-07T02:48:43;-0.30;99.90
8172;DHT22;4127;47.908;10.850;2023-12-07T02:51:13;-0.30;99.90
8172;DHT22;4127;47.908;10.850;2023-12-07T02:53:46;-0.30;99.90
8172;DHT22;4127;47.908;10.850;2023-12-07T02:56:16;-0.20;99.90
8172;DHT22;4127;47.908;10.850;2023-12-07T02:58:48;-0.20;99.90
8172;DHT22;4127;47.908;10.850;2023-12-07T03:01:15;-0.20;99.90
8172;DHT22;4127;47.908;10.850;2023-12-07T03:03:58;-0.20;99.90
8172;DHT22;4127;47.908;10.850;2023-12-07T03:06:25;-0.20;99.90
8172;DHT22;4127;47.908;10.850;2023-12-07T03:09:29;-0.20;99.90
8172;DHT22;4127;47.908;10.850;2023-12-07T03:11:59;-0.10;99.90
8172;DHT22;4127;47.908;10.850;2023-12-07T03:14:26;-0.10;99.90
8172;DHT22;4127;47.908;10.850;2023-12-07T03:16:59;-0.10;99.90
8172;DHT22;4127;47.908;10.850;2023-12-07T03:19:29;-0.10;99.90
8172;DHT22;4127;47.908;10.850;2023-12-07T03:22:02;-0.10;99.90
8172;DHT22;4127;47.908;10.850;2023-12-07T03:24:32;-0.20;99.90
8172;DHT22;4127;47.908;10.850;2023-12-07T03:27:15;-0.10;99.90
8172;DHT22;4127;47.908;10.850;2023-12-07T03:29:42;-0.10;99.90
8172;DHT22;4127;47.908;10.850;2023-12-07T03:32:15;-0.20;99.90
8172;DHT22;4127;47.908;10.850;2023-12-07T03:34:58;-0.10;99.90
8172;DHT22;4127;47.908;10.850;2023-12-07T03:37:39;-0.10;99.90
8172;DHT22;4127;47.908;10.850;2023-12-07T03:40:12;-0.20;99.90
8172;DHT22;4127;47.908;10.850;2023-12-07T03:42:48;-0.10;99.90
8172;DHT22;4127;47.908;10.850;2023-12-07T03:45:23;-0.20;99.90
8172;DHT22;4127;47.908;10.850;2023-12-07T03:47:59;-0.20;99.90
8172;DHT22;4127;47.908;10.850;2023-12-07T03:50:29;-0.20;99.90
8172;DHT22;4127;47.908;10.850;2023-12-07T03:53:05;-0.10;99.90
8172;DHT22;4127;47.908;10.850;2023-12-07T03:55:35;-0.10;99.90
8172;DHT22;4127;47.908;10.850;2023-12-07T03:58:05;-0.10;99.90
8172;DHT22;4127;47.908;10.850;2023-12-07T04:00:32;-0.10;99.90
8172;DHT22;4127;47.908;10.850;2023-12-07T04:03:20;-0.10;99.90
8172;DHT22;4127;47.908;10.850;2023-12-07T04:05:50;-0.10;99.90
8172;DHT22;4127;47.908;10.850;2023-12-07T04:08:20;-0.20;99.90
8172;DHT22;4127;47.908;10.850;2023-12-07T04:10:54;-0.20;99.90
8172;DHT22;4127;47.908;10.850;2023-12-07T04:13:22;-0.20;99.90
8172;DHT22;4127;47.908;10.850;2023-12-07T04:15:54;-0.30;99.90
8172;DHT22;4127;47.908;10.850;2023-12-07T04:18:22;-0.30;99.90
8172;DHT22;4127;47.908;10.850;2023-12-07T04:20:49;-0.40;99.90
8172;DHT22;4127;47.908;10.850;2023-12-07T04:23:17;-0.40;99.90
8172;DHT22;4127;47.908;10.850;2023-12-07T04:25:45;-0.40;99.90
8172;DHT22;4127;47.908;10.850;2023-12-07T04:28:15;-0.50;99.90
8172;DHT22;4127;47.908;10.850;2023-12-07T04:30:45;-0.50;99.90
8172;DHT22;4127;47.908;10.850;2023-12-07T04:33:23;-0.50;99.90
8172;DHT22;4127;47.908;10.850;2023-12-07T04:35:54;-0.60;99.90
8172;DHT22;4127;47.908;10.850;2023-12-07T04:38:31;-0.60;99.90
8172;DHT22;4127;47.908;10.850;2023-12-07T04:40:59;-0.60;99.90
8172;DHT22;4127;47.908;10.850;2023-12-07T04:43:29;-0.70;99.90
8172;DHT22;4127;47.908;10.850;2023-12-07T04:46:03;-0.70;99.90
8172;DHT22;4127;47.908;10.850;2023-12-07T04:49:05;-0.70;99.90
8172;DHT22;4127;47.908;10.850;2023-12-07T04:51:34;-0.80;99.90
8172;DHT22;4127;47.908;10.850;2023-12-07T04:54:27;-0.90;99.90
8172;DHT22;4127;47.908;10.850;2023-12-07T04:57:06;-1.00;99.90
8172;DHT22;4127;47.908;10.850;2023-12-07T04:59:42;-1.00;99.90
8172;DHT22;4127;47.908;10.850;2023-12-07T05:02:39;-1.10;99.90
8172;DHT22;4127;47.908;10.850;2023-12-07T05:05:12;-1.20;99.90
8172;DHT22;4127;47.908;10.850;2023-12-07T05:07:45;-1.30;99.90
8172;DHT22;4127;47.908;10.850;2023-12-07T05:10:13;-1.30;99.90
8172;DHT22;4127;47.908;10.850;2023-12-07T05:12:52;-1.50;99.90
8172;DHT22;4127;47.908;10.850;2023-12-07T05:15:22;-1.50;99.90
8172;DHT22;4127;47.908;10.850;2023-12-07T05:17:56;-1.70;99.90
8172;DHT22;4127;47.908;10.850;2023-12-07T05:20:23;-1.80;99.90
8172;DHT22;4127;47.908;10.850;2023-12-07T05:22:52;-1.90;99.90
8172;DHT22;4127;47.908;10.850;2023-12-07T05:25:25;-1.90;99.90
8172;DHT22;4127;47.908;10.850;2023-12-07T05:28:12;-1.90;99.90
8172;DHT22;4127;47.908;10.850;2023-12-07T05:31:07;-2.00;99.90
8172;DHT22;4127;47.908;10.850;2023-12-07T05:34:17;-2.10;99.90
8172;DHT22;4127;47.908;10.850;2023-12-07T05:37:27;-2.20;99.90
8172;DHT22;4127;47.908;10.850;2023-12-07T05:40:23;-2.40;99.90
8172;DHT22;4127;47.908;10.850;2023-12-07T05:42:51;-2.50;99.90
8172;DHT22;4127;47.908;10.850;2023-12-07T05:51:58;-2.40;99.90
8172;DHT22;4127;47.908;10.850;2023-12-07T05:54:26;-2.50;99.90
8172;DHT22;4127;47.908;10.850;2023-12-07T05:56:53;-2.50;99.90
8172;DHT22;4127;47.908;10.850;2023-12-07T05:59:20;-2.50;99.90
8172;DHT22;4127;47.908;10.850;2023-12-07T06:01:52;-2.50;99.90
8172;DHT22;4127;47.908;10.850;2023-12-07T06:04:20;-2.50;99.90
8172;DHT22;4127;47.908;10.850;2023-12-07T06:06:50;-2.60;99.90
8172;DHT22;4127;47.908;10.850;2023-12-07T06:09:17;-2.70;99.90
8172;DHT22;4127;47.908;10.850;2023-12-07T06:11:44;-2.80;99.90
8172;DHT22;4127;47.908;10.850;2023-12-07T06:14:36;-2.80;99.90
8172;DHT22;4127;47.908;10.850;2023-12-07T06:17:10;-2.90;99.90
8172;DHT22;4127;47.908;10.850;2023-12-07T06:19:38;-3.00;99.90
8172;DHT22;4127;47.908;10.850;2023-12-07T06:22:09;-3.00;99.90
8172;DHT22;4127;47.908;10.850;2023-12-07T06:24:39;-3.00;99.90
8172;DHT22;4127;47.908;10.850;2023-12-07T06:27:20;-3.00;99.90
8172;DHT22;4127;47.908;10.850;2023-12-07T06:29:47;-3.00;99.90
8172;DHT22;4127;47.908;10.850;2023-12-07T06:32:15;-3.10;99.90
8172;DHT22;4127;47.908;10.850;2023-12-07T06:34:46;-3.10;99.90
8172;DHT22;4127;47.908;10.850;2023-12-07T06:37:13;-3.10;99.90
8172;DHT22;4127;47.908;10.850;2023-12-07T06:39:43;-3.10;99.90
8172;DHT22;4127;47.908;10.850;2023-12-07T06:42:10;-3.10;99.90
8172;DHT22;4127;47.908;10.850;2023-12-07T06:44:37;-3.10;99.90
8172;DHT22;4127;47.908;10.850;2023-12-07T06:47:14;-3.10;99.90
8172;DHT22;4127;47.908;10.850;2023-12-07T06:49:55;-3.10;99.90
8172;DHT22;4127;47.908;10.850;2023-12-07T06:52:26;-3.10;99.90
8172;DHT22;4127;47.908;10.850;2023-12-07T06:54:53;-3.10;99.90
8172;DHT22;4127;47.908;10.850;2023-12-07T06:57:21;-3.10;99.90
8172;DHT22;4127;47.908;10.850;2023-12-07T06:59:48;-3.00;99.90
8172;DHT22;4127;47.908;10.850;2023-12-07T07:02:16;-2.90;99.90
8172;DHT22;4127;47.908;10.850;2023-12-07T07:04:43;-2.70;99.90
8172;DHT22;4127;47.908;10.850;2023-12-07T07:07:22;-2.60;99.90
8172;DHT22;4127;47.908;10.850;2023-12-07T07:09:50;-2.50;99.90
8172;DHT22;4127;47.908;10.850;2023-12-07T07:12:30;-2.50;99.90
8172;DHT22;4127;47.908;10.850;2023-12-07T07:14:57;-2.40;99.90
8172;DHT22;4127;47.908;10.850;2023-12-07T07:17:29;-2.40;99.90
8172;DHT22;4127;47.908;10.850;2023-12-07T07:19:56;-2.50;99.90
8172;DHT22;4127;47.908;10.850;2023-12-07T07:22:34;-2.40;99.90
8172;DHT22;4127;47.908;10.850;2023-12-07T07:25:02;-2.20;99.90
8172;DHT22;4127;47.908;10.850;2023-12-07T07:27:32;-2.10;99.90
8172;DHT22;4127;47.908;10.850;2023-12-07T07:30:00;-2.10;99.90
8172;DHT22;4127;47.908;10.850;2023-12-07T07:32:36;-2.00;99.90
8172;DHT22;4127;47.908;10.850;2023-12-07T07:35:12;-2.00;99.90
8172;DHT22;4127;47.908;10.850;2023-12-07T07:37:48;-2.00;99.90
8172;DHT22;4127;47.908;10.850;2023-12-07T07:40:15;-2.00;99.90
8172;DHT22;4127;47.908;10.850;2023-12-07T07:42:43;-2.00;99.90
8172;DHT22;4127;47.908;10.850;2023-12-07T07:45:10;-2.00;99.90
8172;DHT22;4127;47.908;10.850;2023-12-07T07:47:40;-2.00;99.90
8172;DHT22;4127;47.908;10.850;2023-12-07T07:50:07;-2.00;99.90
8172;DHT22;4127;47.908;10.850;2023-12-07T07:52:37;-1.90;99.90
8172;DHT22;4127;47.908;10.850;2023-12-07T07:55:04;-1.90;99.90
8172;DHT22;4127;47.908;10.850;2023-12-07T07:57:32;-1.80;99.90
8172;DHT22;4127;47.908;10.850;2023-12-07T07:59:59;-1.80;99.90
8172;DHT22;4127;47.908;10.850;2023-12-07T08:02:26;-1.70;99.90
8172;DHT22;4127;47.908;10.850;2023-12-07T08:04:55;-1.70;99.90
8172;DHT22;4127;47.908;10.850;2023-12-07T08:07:22;-1.60;99.90
8172;DHT22;4127;47.908;10.850;2023-12-07T08:09:55;-1.70;99.90
8172;DHT22;4127;47.908;10.850;2023-12-07T08:12:36;-1.70;99.90
8172;DHT22;4127;47.908;10.850;2023-12-07T08:15:19;-1.60;99.90
8172;DHT22;4127;47.908;10.850;2023-12-07T08:17:56;-1.50;99.90
8172;DHT22;4127;47.908;10.850;2023-12-07T08:20:26;-1.30;99.90
8172;DHT22;4127;47.908;10.850;2023-12-07T08:22:53;-1.20;99.90
8172;DHT22;4127;47.908;10.850;2023-12-07T08:25:49;-1.20;99.90
8172;DHT22;4127;47.908;10.850;2023-12-07T08:28:25;-1.20;99.90
8172;DHT22;4127;47.908;10.850;2023-12-07T08:30:52;-1.20;99.90
8172;DHT22;4127;47.908;10.850;2023-12-07T08:33:28;-1.20;99.90
8172;DHT22;4127;47.908;10.850;2023-12-07T08:35:56;-1.20;99.90
8172;DHT22;4127;47.908;10.850;2023-12-07T08:38:24;-1.20;99.90
8172;DHT22;4127;47.908;10.850;2023-12-07T08:40:51;-1.00;99.90
8172;DHT22;4127;47.908;10.850;2023-12-07T08:43:21;-1.00;99.90
8172;DHT22;4127;47.908;10.850;2023-12-07T08:45:51;-1.00;99.90
8172;DHT22;4127;47.908;10.850;2023-12-07T08:48:22;-0.90;99.90
8172;DHT22;4127;47.908;10.850;2023-12-07T08:50:49;-0.70;99.90
8172;DHT22;4127;47.908;10.850;2023-12-07T08:53:17;-0.60;99.90
8172;DHT22;4127;47.908;10.850;2023-12-07T08:55:44;-0.50;99.90
8172;DHT22;4127;47.908;10.850;2023-12-07T08:58:11;-0.30;99.90
8172;DHT22;4127;47.908;10.850;2023-12-07T09:00:39;-0.10;99.90
8172;DHT22;4127;47.908;10.850;2023-12-07T09:03:06;0.00;99.90
8172;DHT22;4127;47.908;10.850;2023-12-07T09:05:36;0.00;99.90
8172;DHT22;4127;47.908;10.850;2023-12-07T09:08:03;0.00;99.90
8172;DHT22;4127;47.908;10.850;2023-12-07T09:10:33;0.20;99.90
8172;DHT22;4127;47.908;10.850;2023-12-07T09:13:09;0.30;99.90
8172;DHT22;4127;47.908;10.850;2023-12-07T09:15:36;0.30;99.90
8172;DHT22;4127;47.908;10.850;2023-12-07T09:18:06;0.50;99.90
8172;DHT22;4127;47.908;10.850;2023-12-07T09:20:33;0.60;99.90
8172;DHT22;4127;47.908;10.850;2023-12-07T09:23:00;0.80;99.90
8172;DHT22;4127;47.908;10.850;2023-12-07T09:25:28;0.90;99.90
8172;DHT22;4127;47.908;10.850;2023-12-07T09:27:56;1.00;99.90
8172;DHT22;4127;47.908;10.850;2023-12-07T09:30:23;1.30;99.90
8172;DHT22;4127;47.908;10.850;2023-12-07T09:32:50;1.30;99.90
8172;DHT22;4127;47.908;10.850;2023-12-07T09:35:20;1.40;99.90
8172;DHT22;4127;47.908;10.850;2023-12-07T09:37:48;1.60;99.90
8172;DHT22;4127;47.908;10.850;2023-12-07T09:40:21;1.60;99.90
8172;DHT22;4127;47.908;10.850;2023-12-07T09:42:50;1.60;99.90
8172;DHT22;4127;47.908;10.850;2023-12-07T09:45:18;1.60;99.90
8172;DHT22;4127;47.908;10.850;2023-12-07T09:47:51;1.70;99.90
8172;DHT22;4127;47.908;10.850;2023-12-07T09:50:26;1.80;99.90
8172;DHT22;4127;47.908;10.850;2023-12-07T09:52:55;1.80;99.90
8172;DHT22;4127;47.908;10.850;2023-12-07T09:55:34;1.90;99.90
8172;DHT22;4127;47.908;10.850;2023-12-07T09:58:04;1.90;99.90
8172;DHT22;4127;47.908;10.850;2023-12-07T10:00:31;2.00;99.90
8172;DHT22;4127;47.908;10.850;2023-12-07T10:03:00;2.10;99.90
8172;DHT22;4127;47.908;10.850;2023-12-07T10:05:27;1.90;99.90
8172;DHT22;4127;47.908;10.850;2023-12-07T10:07:54;1.90;99.90
8172;DHT22;4127;47.908;10.850;2023-12-07T10:10:21;1.90;99.90
8172;DHT22;4127;47.908;10.850;2023-12-07T10:12:52;1.90;99.90
8172;DHT22;4127;47.908;10.850;2023-12-07T10:15:21;2.10;99.90
8172;DHT22;4127;47.908;10.850;2023-12-07T10:17:50;2.40;99.90
8172;DHT22;4127;47.908;10.850;2023-12-07T10:20:22;2.60;99.90
8172;DHT22;4127;47.908;10.850;2023-12-07T10:25:35;2.80;99.90
8172;DHT22;4127;47.908;10.850;2023-12-07T10:28:03;2.80;99.90
8172;DHT22;4127;47.908;10.850;2023-12-07T10:30:35;2.80;99.90
8172;DHT22;4127;47.908;10.850;2023-12-07T10:33:06;2.70;99.90
8172;DHT22;4127;47.908;10.850;2023-12-07T10:35:41;2.10;99.90
8172;DHT22;4127;47.908;10.850;2023-12-07T10:38:09;2.20;99.90
8172;DHT22;4127;47.908;10.850;2023-12-07T10:40:37;2.10;99.90
8172;DHT22;4127;47.908;10.850;2023-12-07T10:43:05;1.70;99.90
8172;DHT22;4127;47.908;10.850;2023-12-07T10:45:34;1.50;99.90
8172;DHT22;4127;47.908;10.850;2023-12-07T10:48:10;1.60;99.90
8172;DHT22;4127;47.908;10.850;2023-12-07T10:50:41;1.50;99.90
8172;DHT22;4127;47.908;10.850;2023-12-07T10:53:40;1.80;99.90
8172;DHT22;4127;47.908;10.850;2023-12-07T10:56:13;2.10;99.90
8172;DHT22;4127;47.908;10.850;2023-12-07T10:58:43;2.30;99.90
8172;DHT22;4127;47.908;10.850;2023-12-07T11:01:12;2.20;99.90
8172;DHT22;4127;47.908;10.850;2023-12-07T11:03:41;2.20;99.90
8172;DHT22;4127;47.908;10.850;2023-12-07T11:06:10;2.30;99.90
8172;DHT22;4127;47.908;10.850;2023-12-07T11:08:44;2.50;99.90
8172;DHT22;4127;47.908;10.850;2023-12-07T11:14:03;2.80;99.90
8172;DHT22;4127;47.908;10.850;2023-12-07T11:16:33;2.60;99.90
8172;DHT22;4127;47.908;10.850;2023-12-07T11:19:03;2.40;99.90
8172;DHT22;4127;47.908;10.850;2023-12-07T11:21:35;2.50;99.90
8172;DHT22;4127;47.908;10.850;2023-12-07T11:24:03;2.80;99.90
8172;DHT22;4127;47.908;10.850;2023-12-07T11:26:31;3.00;99.90
8172;DHT22;4127;47.908;10.850;2023-12-07T11:28:57;3.20;99.90
8172;DHT22;4127;47.908;10.850;2023-12-07T11:31:25;3.20;99.90
8172;DHT22;4127;47.908;10.850;2023-12-07T11:33:53;3.00;99.90
8172;DHT22;4127;47.908;10.850;2023-12-07T11:36:20;2.90;99.90
8172;DHT22;4127;47.908;10.850;2023-12-07T11:41:29;3.10;99.90
8172;DHT22;4127;47.908;10.850;2023-12-07T11:43:59;3.30;99.90
8172;DHT22;4127;47.908;10.850;2023-12-07T11:46:26;3.40;99.90
8172;DHT22;4127;47.908;10.850;2023-12-07T11:48:54;3.00;99.90
8172;DHT22;4127;47.908;10.850;2023-12-07T11:51:21;3.10;99.90
8172;DHT22;4127;47.908;10.850;2023-12-07T11:53:48;3.30;99.90
8172;DHT22;4127;47.908;10.850;2023-12-07T11:56:17;3.50;99.90
8172;DHT22;4127;47.908;10.850;2023-12-07T11:58:47;3.50;99.90
8172;DHT22;4127;47.908;10.850;2023-12-07T12:01:16;3.40;99.90
8172;DHT22;4127;47.908;10.850;2023-12-07T12:03:44;3.10;99.90
8172;DHT22;4127;47.908;10.850;2023-12-07T12:06:10;3.10;99.90
8172;DHT22;4127;47.908;10.850;2023-12-07T12:08:40;3.20;99.90
8172;DHT22;4127;47.908;10.850;2023-12-07T12:11:08;3.40;99.90
8172;DHT22;4127;47.908;10.850;2023-12-07T12:13:36;3.30;99.90
8172;DHT22;4127;47.908;10.850;2023-12-07T12:16:04;2.70;99.90
8172;DHT22;4127;47.908;10.850;2023-12-07T12:18:33;2.80;99.90
8172;DHT22;4127;47.908;10.850;2023-12-07T12:21:01;3.20;99.90
8172;DHT22;4127;47.908;10.850;2023-12-07T12:23:28;3.10;99.90
8172;DHT22;4127;47.908;10.850;2023-12-07T12:25:56;2.70;99.90
8172;DHT22;4127;47.908;10.850;2023-12-07T12:28:25;2.40;99.90
8172;DHT22;4127;47.908;10.850;2023-12-07T12:30:53;2.60;99.90
8172;DHT22;4127;47.908;10.850;2023-12-07T12:33:20;2.90;99.90
8172;DHT22;4127;47.908;10.850;2023-12-07T12:35:48;3.10;99.90
8172;DHT22;4127;47.908;10.850;2023-12-07T12:38:26;2.90;99.90
8172;DHT22;4127;47.908;10.850;2023-12-07T12:41:07;2.80;99.90
8172;DHT22;4127;47.908;10.850;2023-12-07T12:43:35;2.60;99.90
8172;DHT22;4127;47.908;10.850;2023-12-07T12:46:02;2.30;99.90
8172;DHT22;4127;47.908;10.850;2023-12-07T12:48:32;2.30;99.90
8172;DHT22;4127;47.908;10.850;2023-12-07T12:51:12;2.50;99.90
8172;DHT22;4127;47.908;10.850;2023-12-07T12:53:46;2.20;99.90
8172;DHT22;4127;47.908;10.850;2023-12-07T12:56:21;2.00;99.90
8172;DHT22;4127;47.908;10.850;2023-12-07T12:58:53;2.00;99.90
8172;DHT22;4127;47.908;10.850;2023-12-07T13:01:29;2.20;99.90
8172;DHT22;4127;47.908;10.850;2023-12-07T13:03:56;2.20;99.90
8172;DHT22;4127;47.908;10.850;2023-12-07T13:06:24;2.00;99.90
8172;DHT22;4127;47.908;10.850;2023-12-07T13:08:51;1.90;99.90
8172;DHT22;4127;47.908;10.850;2023-12-07T13:11:19;1.90;99.90
8172;DHT22;4127;47.908;10.850;2023-12-07T13:13:47;2.00;99.90
8172;DHT22;4127;47.908;10.850;2023-12-07T13:16:16;2.10;99.90
8172;DHT22;4127;47.908;10.850;2023-12-07T13:18:43;2.20;99.90
8172;DHT22;4127;47.908;10.850;2023-12-07T13:21:10;1.90;99.90
8172;DHT22;4127;47.908;10.850;2023-12-07T13:23:37;1.80;99.90
8172;DHT22;4127;47.908;10.850;2023-12-07T13:26:04;1.80;99.90
8172;DHT22;4127;47.908;10.850;2023-12-07T13:28:33;1.80;99.90
8172;DHT22;4127;47.908;10.850;2023-12-07T13:31:00;1.70;99.90
8172;DHT22;4127;47.908;10.850;2023-12-07T13:33:27;1.70;99.90
8172;DHT22;4127;47.908;10.850;2023-12-07T13:35:59;1.60;99.90
8172;DHT22;4127;47.908;10.850;2023-12-07T13:38:33;1.60;99.90
8172;DHT22;4127;47.908;10.850;2023-12-07T13:41:01;1.50;99.90
8172;DHT22;4127;47.908;10.850;2023-12-07T13:43:28;1.60;99.90
8172;DHT22;4127;47.908;10.850;2023-12-07T13:45:58;1.60;99.90
8172;DHT22;4127;47.908;10.850;2023-12-07T13:48:26;1.60;99.90
8172;DHT22;4127;47.908;10.850;2023-12-07T13:50:53;1.70;99.90
8172;DHT22;4127;47.908;10.850;2023-12-07T13:53:20;1.70;99.90
8172;DHT22;4127;47.908;10.850;2023-12-07T13:55:48;1.60;99.90
8172;DHT22;4127;47.908;10.850;2023-12-07T13:58:17;1.50;99.90
8172;DHT22;4127;47.908;10.850;2023-12-07T14:00:44;1.40;99.90
8172;DHT22;4127;47.908;10.850;2023-12-07T14:03:13;1.50;99.90
8172;DHT22;4127;47.908;10.850;2023-12-07T14:05:40;1.60;99.90
8172;DHT22;4127;47.908;10.850;2023-12-07T14:08:08;1.70;99.90
8172;DHT22;4127;47.908;10.850;2023-12-07T14:10:35;1.70;99.90
8172;DHT22;4127;47.908;10.850;2023-12-07T14:13:02;1.70;99.90
8172;DHT22;4127;47.908;10.850;2023-12-07T14:15:29;1.80;99.90
8172;DHT22;4127;47.908;10.850;2023-12-07T14:18:10;1.60;99.90
8172;DHT22;4127;47.908;10.850;2023-12-07T14:20:37;1.70;99.90
8172;DHT22;4127;47.908;10.850;2023-12-07T14:23:07;1.60;99.90
8172;DHT22;4127;47.908;10.850;2023-12-07T14:25:35;1.70;99.90
8172;DHT22;4127;47.908;10.850;2023-12-07T14:28:02;1.60;99.90
8172;DHT22;4127;47.908;10.850;2023-12-07T14:30:29;1.60;99.90
8172;DHT22;4127;47.908;10.850;2023-12-07T14:32:55;1.60;99.90
8172;DHT22;4127;47.908;10.850;2023-12-07T14:35:23;1.50;99.90
8172;DHT22;4127;47.908;10.850;2023-12-07T14:37:50;1.70;99.90
8172;DHT22;4127;47.908;10.850;2023-12-07T14:40:18;1.70;99.90
8172;DHT22;4127;47.908;10.850;2023-12-07T14:42:46;1.70;99.90
8172;DHT22;4127;47.908;10.850;2023-12-07T14:45:13;1.70;99.90
8172;DHT22;4127;47.908;10.850;2023-12-07T14:47:42;1.70;99.90
8172;DHT22;4127;47.908;10.850;2023-12-07T14:50:09;1.80;99.90
8172;DHT22;4127;47.908;10.850;2023-12-07T14:52:36;1.70;99.90
8172;DHT22;4127;47.908;10.850;2023-12-07T14:55:04;1.70;99.90
8172;DHT22;4127;47.908;10.850;2023-12-07T14:57:31;1.70;99.90
8172;DHT22;4127;47.908;10.850;2023-12-07T14:59:58;1.80;99.90
8172;DHT22;4127;47.908;10.850;2023-12-07T15:02:25;1.60;99.90
8172;DHT22;4127;47.908;10.850;2023-12-07T15:04:53;1.50;99.90
8172;DHT22;4127;47.908;10.850;2023-12-07T15:07:20;1.30;99.90
8172;DHT22;4127;47.908;10.850;2023-12-07T15:09:47;1.00;99.90
8172;DHT22;4127;47.908;10.850;2023-12-07T15:12:16;0.80;99.90
8172;DHT22;4127;47.908;10.850;2023-12-07T15:14:46;0.80;99.90
8172;DHT22;4127;47.908;10.850;2023-12-07T15:17:16;0.40;99.90
8172;DHT22;4127;47.908;10.850;2023-12-07T15:19:43;0.20;99.90
8172;DHT22;4127;47.908;10.850;2023-12-07T15:22:10;0.20;99.90
8172;DHT22;4127;47.908;10.850;2023-12-07T15:24:37;0.10;99.90
8172;DHT22;4127;47.908;10.850;2023-12-07T15:27:07;0.00;99.90
8172;DHT22;4127;47.908;10.850;2023-12-07T15:29:34;-0.10;99.90
8172;DHT22;4127;47.908;10.850;2023-12-07T15:32:04;-0.10;99.90
8172;DHT22;4127;47.908;10.850;2023-12-07T15:34:31;0.20;99.90
8172;DHT22;4127;47.908;10.850;2023-12-07T15:37:07;0.30;99.90
8172;DHT22;4127;47.908;10.850;2023-12-07T15:39:40;-0.10;99.90
8172;DHT22;4127;47.908;10.850;2023-12-07T15:42:08;-0.20;99.90
8172;DHT22;4127;47.908;10.850;2023-12-07T15:45:00;-0.40;99.90
8172;DHT22;4127;47.908;10.850;2023-12-07T15:47:28;-0.60;99.90
8172;DHT22;4127;47.908;10.850;2023-12-07T15:50:03;-0.70;99.90
8172;DHT22;4127;47.908;10.850;2023-12-07T15:52:30;-0.80;99.90
8172;DHT22;4127;47.908;10.850;2023-12-07T15:55:00;-0.90;99.90
8172;DHT22;4127;47.908;10.850;2023-12-07T15:57:29;-1.00;99.90
8172;DHT22;4127;47.908;10.850;2023-12-07T15:59:56;-1.10;99.90
8172;DHT22;4127;47.908;10.850;2023-12-07T16:02:26;-1.30;99.90
8172;DHT22;4127;47.908;10.850;2023-12-07T16:04:54;-1.60;99.90
8172;DHT22;4127;47.908;10.850;2023-12-07T16:07:34;-1.70;99.90
8172;DHT22;4127;47.908;10.850;2023-12-07T16:10:07;-1.60;99.90
8172;DHT22;4127;47.908;10.850;2023-12-07T16:12:35;-1.70;99.90
8172;DHT22;4127;47.908;10.850;2023-12-07T16:15:02;-1.70;99.90
8172;DHT22;4127;47.908;10.850;2023-12-07T16:17:34;-1.70;99.90
8172;DHT22;4127;47.908;10.850;2023-12-07T16:20:01;-1.60;99.90
8172;DHT22;4127;47.908;10.850;2023-12-07T16:22:28;-1.80;99.90
8172;DHT22;4127;47.908;10.850;2023-12-07T16:24:58;-1.90;99.90
8172;DHT22;4127;47.908;10.850;2023-12-07T16:27:38;-1.90;99.90
8172;DHT22;4127;47.908;10.850;2023-12-07T16:30:16;-1.90;99.90
8172;DHT22;4127;47.908;10.850;2023-12-07T16:33:14;-2.00;99.90
8172;DHT22;4127;47.908;10.850;2023-12-07T16:35:41;-2.10;99.90
8172;DHT22;4127;47.908;10.850;2023-12-07T16:38:08;-2.10;99.90
8172;DHT22;4127;47.908;10.850;2023-12-07T16:40:35;-2.10;99.90